sensor_id;sensor_type;location;lat;lon;timestamp;temperature;humidity
12568;DHT22;6349;50.904;6.136;2022-07-06T00:00:05;15.70;99.90
12568;DHT22;6349;50.904;6.136;2022-07-06T00:02:26;15.60;99.90
12568;DHT22;6349;50.904;6.136;2022-07-06T00:04:47;15.50;99.90
12568;DHT22;6349;50.904;6.136;2022-07-06T00:07:08;15.40;99.90
12568;DHT22;6349;50.904;6.136;2022-07-06T00:09:29;15.40;99.90
12568;DHT22;6349;50.904;6.136;2022-07-06T00:11:50;15.30;99.90
12568;DHT22;6349;50.904;6.136;2022-07-06T00:14:11;15.20;99.90
12568;DHT22;6349;50.904;6.136;2022-07-06T00:16:32;15.20;99.90
12568;DHT22;6349;50.904;6.136;2022-07-06T00:18:53;15.20;99.90
12568;DHT22;6349;50.904;6.136;2022-07-06T00:21:14;15.20;99.90
12568;DHT22;6349;50.904;6.136;2022-07-06T00:23:35;15.20;99.90
12568;DHT22;6349;50.904;6.136;2022-07-06T00:25:56;15.20;99.90
12568;DHT22;6349;50.904;6.136;2022-07-06T00:28:17;15.20;99.90
12568;DHT22;6349;50.904;6.136;2022-07-06T00:30:38;15.10;99.90
12568;DHT22;6349;50.904;6.136;2022-07-06T00:33:00;15.10;99.90
12568;DHT22;6349;50.904;6.136;2022-07-06T00:35:21;15.10;99.90
12568;DHT22;6349;50.904;6.136;2022-07-06T00:37:42;15.10;99.90
12568;DHT22;6349;50.904;6.136;2022-07-06T00:40:03;15.10;99.90
12568;DHT22;6349;50.904;6.136;2022-07-06T00:42:24;15.10;99.90
12568;DHT22;6349;50.904;6.136;2022-07-06T00:44:45;15.00;99.90
12568;DHT22;6349;50.904;6.136;2022-07-06T00:47:06;15.10;99.90
12568;DHT22;6349;50.904;6.136;2022-07-06T00:49:28;15.00;99.90
12568;DHT22;6349;50.904;6.136;2022-07-06T00:52:08;15.10;99.90
12568;DHT22;6349;50.904;6.136;2022-07-06T00:54:31;15.10;99.90
12568;DHT22;6349;50.904;6.136;2022-07-06T00:56:53;15.10;99.90
12568;DHT22;6349;50.904;6.136;2022-07-06T00:59:14;15.00;99.90
12568;DHT22;6349;50.904;6.136;2022-07-06T01:01:35;15.10;99.90
12568;DHT22;6349;50.904;6.136;2022-07-06T01:03:56;15.10;99.90
12568;DHT22;6349;50.904;6.136;2022-07-06T01:06:17;15.00;99.90
12568;DHT22;6349;50.904;6.136;2022-07-06T01:08:38;15.00;99.90
12568;DHT22;6349;50.904;6.136;2022-07-06T01:11:00;15.00;99.90
12568;DHT22;6349;50.904;6.136;2022-07-06T01:13:21;15.00;99.90
12568;DHT22;6349;50.904;6.136;2022-07-06T01:15:42;15.00;99.90
12568;DHT22;6349;50.904;6.136;2022-07-06T01:18:04;15.00;99.90
12568;DHT22;6349;50.904;6.136;2022-07-06T01:20:26;15.00;99.90
12568;DHT22;6349;50.904;6.136;2022-07-06T01:22:48;14.90;99.90
12568;DHT22;6349;50.904;6.136;2022-07-06T01:25:09;14.90;99.90
12568;DHT22;6349;50.904;6.136;2022-07-06T01:27:31;14.90;99.90
12568;DHT22;6349;50.904;6.136;2022-07-06T01:29:52;14.80;99.90
12568;DHT22;6349;50.904;6.136;2022-07-06T01:32:14;14.70;99.90
12568;DHT22;6349;50.904;6.136;2022-07-06T01:34:35;14.70;99.90
12568;DHT22;6349;50.904;6.136;2022-07-06T01:36:56;14.70;99.90
12568;DHT22;6349;50.904;6.136;2022-07-06T01:39:17;14.70;99.90
12568;DHT22;6349;50.904;6.136;2022-07-06T01:41:38;14.70;99.90
12568;DHT22;6349;50.904;6.136;2022-07-06T01:44:00;14.60;99.90
12568;DHT22;6349;50.904;6.136;2022-07-06T01:46:21;14.50;99.90
12568;DHT22;6349;50.904;6.136;2022-07-06T01:48:42;14.50;99.90
12568;DHT22;6349;50.904;6.136;2022-07-06T01:51:03;14.40;99.90
12568;DHT22;6349;50.904;6.136;2022-07-06T01:53:25;14.40;99.90
12568;DHT22;6349;50.904;6.136;2022-07-06T01:55:46;14.30;99.90
12568;DHT22;6349;50.904;6.136;2022-07-06T01:58:07;14.30;99.90
12568;DHT22;6349;50.904;6.136;2022-07-06T02:00:28;14.30;99.90
12568;DHT22;6349;50.904;6.136;2022-07-06T02:02:49;14.30;99.90
12568;DHT22;6349;50.904;6.136;2022-07-06T02:05:10;14.20;99.90
12568;DHT22;6349;50.904;6.136;2022-07-06T02:07:30;14.20;99.90
12568;DHT22;6349;50.904;6.136;2022-07-06T02:09:51;14.10;99.90
12568;DHT22;6349;50.904;6.136;2022-07-06T02:12:12;14.10;99.90
12568;DHT22;6349;50.904;6.136;2022-07-06T02:14:33;14.10;99.90
12568;DHT22;6349;50.904;6.136;2022-07-06T02:16:54;14.10;99.90
12568;DHT22;6349;50.904;6.136;2022-07-06T02:19:15;14.00;99.90
12568;DHT22;6349;50.904;6.136;2022-07-06T02:21:36;14.00;99.90
12568;DHT22;6349;50.904;6.136;2022-07-06T02:23:57;13.90;99.90
12568;DHT22;6349;50.904;6.136;2022-07-06T02:26:18;14.00;99.90
12568;DHT22;6349;50.904;6.136;2022-07-06T02:28:39;13.90;99.90
12568;DHT22;6349;50.904;6.136;2022-07-06T02:31:00;13.80;99.90
12568;DHT22;6349;50.904;6.136;2022-07-06T02:33:22;13.80;99.90
12568;DHT22;6349;50.904;6.136;2022-07-06T02:35:43;13.80;99.90
12568;DHT22;6349;50.904;6.136;2022-07-06T02:38:07;13.80;99.90
12568;DHT22;6349;50.904;6.136;2022-07-06T02:40:28;13.90;99.90
12568;DHT22;6349;50.904;6.136;2022-07-06T02:42:49;13.90;99.90
12568;DHT22;6349;50.904;6.136;2022-07-06T02:45:10;13.80;99.90
12568;DHT22;6349;50.904;6.136;2022-07-06T02:47:31;13.90;99.90
12568;DHT22;6349;50.904;6.136;2022-07-06T02:49:52;13.90;99.90
12568;DHT22;6349;50.904;6.136;2022-07-06T02:52:14;13.90;99.90
12568;DHT22;6349;50.904;6.136;2022-07-06T02:54:35;13.90;99.90
12568;DHT22;6349;50.904;6.136;2022-07-06T02:56:56;13.90;99.90
12568;DHT22;6349;50.904;6.136;2022-07-06T02:59:17;13.90;99.90
12568;DHT22;6349;50.904;6.136;2022-07-06T03:01:38;13.80;99.90
12568;DHT22;6349;50.904;6.136;2022-07-06T03:03:59;13.90;99.90
12568;DHT22;6349;50.904;6.136;2022-07-06T03:06:20;13.80;99.90
12568;DHT22;6349;50.904;6.136;2022-07-06T03:08:41;13.80;99.90
12568;DHT22;6349;50.904;6.136;2022-07-06T03:11:02;13.80;99.90
12568;DHT22;6349;50.904;6.136;2022-07-06T03:13:23;13.80;99.90
12568;DHT22;6349;50.904;6.136;2022-07-06T03:15:44;13.80;99.90
12568;DHT22;6349;50.904;6.136;2022-07-06T03:18:05;13.70;99.90
12568;DHT22;6349;50.904;6.136;2022-07-06T03:20:26;13.70;99.90
12568;DHT22;6349;50.904;6.136;2022-07-06T03:22:47;13.60;99.90
12568;DHT22;6349;50.904;6.136;2022-07-06T03:25:08;13.60;99.90
12568;DHT22;6349;50.904;6.136;2022-07-06T03:27:29;13.60;99.90
12568;DHT22;6349;50.904;6.136;2022-07-06T03:29:50;13.60;99.90
12568;DHT22;6349;50.904;6.136;2022-07-06T03:32:11;13.50;99.90
12568;DHT22;6349;50.904;6.136;2022-07-06T03:34:32;13.50;99.90
12568;DHT22;6349;50.904;6.136;2022-07-06T03:36:53;13.50;99.90
12568;DHT22;6349;50.904;6.136;2022-07-06T03:39:14;13.50;99.90
12568;DHT22;6349;50.904;6.136;2022-07-06T03:41:35;13.50;99.90
12568;DHT22;6349;50.904;6.136;2022-07-06T03:43:56;13.50;99.90
12568;DHT22;6349;50.904;6.136;2022-07-06T03:46:17;13.50;99.90
12568;DHT22;6349;50.904;6.136;2022-07-06T03:48:38;13.50;99.90
12568;DHT22;6349;50.904;6.136;2022-07-06T03:50:59;13.50;99.90
12568;DHT22;6349;50.904;6.136;2022-07-06T03:53:20;13.40;99.90
12568;DHT22;6349;50.904;6.136;2022-07-06T03:55:41;13.40;99.90
12568;DHT22;6349;50.904;6.136;2022-07-06T03:58:02;13.30;99.90
12568;DHT22;6349;50.904;6.136;2022-07-06T04:00:24;13.30;99.90
12568;DHT22;6349;50.904;6.136;2022-07-06T04:02:45;13.30;99.90
12568;DHT22;6349;50.904;6.136;2022-07-06T04:05:06;13.30;99.90
12568;DHT22;6349;50.904;6.136;2022-07-06T04:07:27;13.30;99.90
12568;DHT22;6349;50.904;6.136;2022-07-06T04:09:48;13.30;99.90
12568;DHT22;6349;50.904;6.136;2022-07-06T04:12:09;13.30;99.90
12568;DHT22;6349;50.904;6.136;2022-07-06T04:14:30;13.30;99.90
12568;DHT22;6349;50.904;6.136;2022-07-06T04:16:51;13.30;99.90
12568;DHT22;6349;50.904;6.136;2022-07-06T04:19:12;13.30;99.90
12568;DHT22;6349;50.904;6.136;2022-07-06T04:21:33;13.30;99.90
12568;DHT22;6349;50.904;6.136;2022-07-06T04:23:54;13.30;99.90
12568;DHT22;6349;50.904;6.136;2022-07-06T04:26:15;13.20;99.90
12568;DHT22;6349;50.904;6.136;2022-07-06T04:28:36;13.20;99.90
12568;DHT22;6349;50.904;6.136;2022-07-06T04:30:57;13.20;99.90
12568;DHT22;6349;50.904;6.136;2022-07-06T04:33:18;13.20;99.90
12568;DHT22;6349;50.904;6.136;2022-07-06T04:35:39;13.10;99.90
12568;DHT22;6349;50.904;6.136;2022-07-06T04:38:00;13.10;99.90
12568;DHT22;6349;50.904;6.136;2022-07-06T04:40:21;13.10;99.90
12568;DHT22;6349;50.904;6.136;2022-07-06T04:42:42;13.10;99.90
12568;DHT22;6349;50.904;6.136;2022-07-06T04:45:04;13.10;99.90
12568;DHT22;6349;50.904;6.136;2022-07-06T04:47:25;13.20;99.90
12568;DHT22;6349;50.904;6.136;2022-07-06T04:49:47;13.20;99.90
12568;DHT22;6349;50.904;6.136;2022-07-06T04:52:08;13.20;99.90
12568;DHT22;6349;50.904;6.136;2022-07-06T04:54:29;13.20;99.90
12568;DHT22;6349;50.904;6.136;2022-07-06T04:56:50;13.10;99.90
12568;DHT22;6349;50.904;6.136;2022-07-06T04:59:11;13.20;99.90
12568;DHT22;6349;50.904;6.136;2022-07-06T05:01:32;13.20;99.90
12568;DHT22;6349;50.904;6.136;2022-07-06T05:03:53;13.10;99.90
12568;DHT22;6349;50.904;6.136;2022-07-06T05:06:14;13.10;99.90
12568;DHT22;6349;50.904;6.136;2022-07-06T05:08:36;13.10;99.90
12568;DHT22;6349;50.904;6.136;2022-07-06T05:10:57;13.10;99.90
12568;DHT22;6349;50.904;6.136;2022-07-06T05:13:18;13.10;99.90
12568;DHT22;6349;50.904;6.136;2022-07-06T05:15:39;13.10;99.90
12568;DHT22;6349;50.904;6.136;2022-07-06T05:18:00;13.10;99.90
12568;DHT22;6349;50.904;6.136;2022-07-06T05:20:21;13.20;99.90
12568;DHT22;6349;50.904;6.136;2022-07-06T05:22:42;13.20;99.90
12568;DHT22;6349;50.904;6.136;2022-07-06T05:25:03;13.20;99.90
12568;DHT22;6349;50.904;6.136;2022-07-06T05:27:24;13.20;99.90
12568;DHT22;6349;50.904;6.136;2022-07-06T05:29:45;13.20;99.90
12568;DHT22;6349;50.904;6.136;2022-07-06T05:32:06;13.20;99.90
12568;DHT22;6349;50.904;6.136;2022-07-06T05:34:27;13.20;99.90
12568;DHT22;6349;50.904;6.136;2022-07-06T05:36:48;13.20;99.90
12568;DHT22;6349;50.904;6.136;2022-07-06T05:39:09;13.20;99.90
12568;DHT22;6349;50.904;6.136;2022-07-06T05:41:30;13.20;99.90
12568;DHT22;6349;50.904;6.136;2022-07-06T05:43:51;13.30;99.90
12568;DHT22;6349;50.904;6.136;2022-07-06T05:46:12;13.30;99.90
12568;DHT22;6349;50.904;6.136;2022-07-06T05:48:33;13.30;99.90
12568;DHT22;6349;50.904;6.136;2022-07-06T05:51:13;13.40;99.90
12568;DHT22;6349;50.904;6.136;2022-07-06T05:53:34;13.50;99.90
12568;DHT22;6349;50.904;6.136;2022-07-06T05:55:55;13.50;99.90
12568;DHT22;6349;50.904;6.136;2022-07-06T05:58:16;13.70;99.90
12568;DHT22;6349;50.904;6.136;2022-07-06T06:00:37;13.70;99.90
12568;DHT22;6349;50.904;6.136;2022-07-06T06:02:58;13.70;99.90
12568;DHT22;6349;50.904;6.136;2022-07-06T06:05:20;13.70;99.90
12568;DHT22;6349;50.904;6.136;2022-07-06T06:07:42;13.80;99.90
12568;DHT22;6349;50.904;6.136;2022-07-06T06:10:06;13.80;99.90
12568;DHT22;6349;50.904;6.136;2022-07-06T06:12:27;13.90;99.90
12568;DHT22;6349;50.904;6.136;2022-07-06T06:14:48;13.90;99.90
12568;DHT22;6349;50.904;6.136;2022-07-06T06:17:09;14.00;99.90
12568;DHT22;6349;50.904;6.136;2022-07-06T06:19:30;14.00;99.90
12568;DHT22;6349;50.904;6.136;2022-07-06T06:21:51;14.10;99.90
12568;DHT22;6349;50.904;6.136;2022-07-06T06:24:12;14.10;99.90
12568;DHT22;6349;50.904;6.136;2022-07-06T06:26:33;14.10;99.90
12568;DHT22;6349;50.904;6.136;2022-07-06T06:28:54;14.20;99.90
12568;DHT22;6349;50.904;6.136;2022-07-06T06:31:15;14.30;99.90
12568;DHT22;6349;50.904;6.136;2022-07-06T06:33:36;14.40;99.90
12568;DHT22;6349;50.904;6.136;2022-07-06T06:35:57;14.40;99.90
12568;DHT22;6349;50.904;6.136;2022-07-06T06:38:20;14.50;99.90
12568;DHT22;6349;50.904;6.136;2022-07-06T06:40:41;14.50;99.90
12568;DHT22;6349;50.904;6.136;2022-07-06T06:43:02;14.50;99.90
12568;DHT22;6349;50.904;6.136;2022-07-06T06:45:24;14.60;99.90
12568;DHT22;6349;50.904;6.136;2022-07-06T06:47:45;14.60;99.90
12568;DHT22;6349;50.904;6.136;2022-07-06T06:50:07;14.70;99.90
12568;DHT22;6349;50.904;6.136;2022-07-06T06:52:28;14.70;99.90
12568;DHT22;6349;50.904;6.136;2022-07-06T06:54:49;14.70;99.90
12568;DHT22;6349;50.904;6.136;2022-07-06T06:57:10;14.80;99.90
12568;DHT22;6349;50.904;6.136;2022-07-06T06:59:31;15.00;99.90
12568;DHT22;6349;50.904;6.136;2022-07-06T07:01:52;15.00;99.90
12568;DHT22;6349;50.904;6.136;2022-07-06T07:04:13;15.10;99.90
12568;DHT22;6349;50.904;6.136;2022-07-06T07:06:34;15.20;99.90
12568;DHT22;6349;50.904;6.136;2022-07-06T07:08:55;15.30;99.90
12568;DHT22;6349;50.904;6.136;2022-07-06T07:11:16;15.40;99.90
12568;DHT22;6349;50.904;6.136;2022-07-06T07:13:37;15.50;99.90
12568;DHT22;6349;50.904;6.136;2022-07-06T07:15:59;15.50;99.90
12568;DHT22;6349;50.904;6.136;2022-07-06T07:18:20;15.50;99.90
12568;DHT22;6349;50.904;6.136;2022-07-06T07:20:41;15.60;99.90
12568;DHT22;6349;50.904;6.136;2022-07-06T07:23:02;15.60;99.90
12568;DHT22;6349;50.904;6.136;2022-07-06T07:25:23;15.70;99.90
12568;DHT22;6349;50.904;6.136;2022-07-06T07:27:44;15.70;99.90
12568;DHT22;6349;50.904;6.136;2022-07-06T07:30:05;15.80;99.90
12568;DHT22;6349;50.904;6.136;2022-07-06T07:32:27;15.80;99.90
12568;DHT22;6349;50.904;6.136;2022-07-06T07:34:48;15.90;99.90
12568;DHT22;6349;50.904;6.136;2022-07-06T07:37:08;15.90;99.90
12568;DHT22;6349;50.904;6.136;2022-07-06T07:39:29;16.00;99.90
12568;DHT22;6349;50.904;6.136;2022-07-06T07:41:50;16.00;99.90
12568;DHT22;6349;50.904;6.136;2022-07-06T07:44:12;16.00;99.90
12568;DHT22;6349;50.904;6.136;2022-07-06T07:46:33;16.10;99.90
12568;DHT22;6349;50.904;6.136;2022-07-06T07:48:54;16.10;99.90
12568;DHT22;6349;50.904;6.136;2022-07-06T07:51:15;16.00;99.90
12568;DHT22;6349;50.904;6.136;2022-07-06T07:53:36;16.10;99.90
12568;DHT22;6349;50.904;6.136;2022-07-06T07:55:57;16.10;99.90
12568;DHT22;6349;50.904;6.136;2022-07-06T07:58:18;16.10;99.90
12568;DHT22;6349;50.904;6.136;2022-07-06T08:00:39;16.20;99.90
12568;DHT22;6349;50.904;6.136;2022-07-06T08:03:00;16.20;99.90
12568;DHT22;6349;50.904;6.136;2022-07-06T08:05:21;16.30;99.90
12568;DHT22;6349;50.904;6.136;2022-07-06T08:07:43;16.40;99.90
12568;DHT22;6349;50.904;6.136;2022-07-06T08:10:04;16.50;99.90
12568;DHT22;6349;50.904;6.136;2022-07-06T08:12:25;16.50;99.90
12568;DHT22;6349;50.904;6.136;2022-07-06T08:14:47;16.60;99.90
12568;DHT22;6349;50.904;6.136;2022-07-06T08:17:08;16.60;99.90
12568;DHT22;6349;50.904;6.136;2022-07-06T08:19:29;16.80;99.90
12568;DHT22;6349;50.904;6.136;2022-07-06T08:21:51;16.90;99.90
12568;DHT22;6349;50.904;6.136;2022-07-06T08:24:12;17.10;99.90
12568;DHT22;6349;50.904;6.136;2022-07-06T08:26:33;17.10;99.90
12568;DHT22;6349;50.904;6.136;2022-07-06T08:28:54;17.20;99.90
12568;DHT22;6349;50.904;6.136;2022-07-06T08:31:15;17.20;99.90
12568;DHT22;6349;50.904;6.136;2022-07-06T08:33:36;17.20;99.90
12568;DHT22;6349;50.904;6.136;2022-07-06T08:35:57;17.20;99.90
12568;DHT22;6349;50.904;6.136;2022-07-06T08:38:18;17.20;99.90
12568;DHT22;6349;50.904;6.136;2022-07-06T08:40:41;17.20;99.90
12568;DHT22;6349;50.904;6.136;2022-07-06T08:43:03;17.20;99.90
12568;DHT22;6349;50.904;6.136;2022-07-06T08:45:25;17.20;99.90
12568;DHT22;6349;50.904;6.136;2022-07-06T08:47:49;17.40;99.90
12568;DHT22;6349;50.904;6.136;2022-07-06T08:50:10;17.50;99.90
12568;DHT22;6349;50.904;6.136;2022-07-06T08:52:32;17.50;99.90
12568;DHT22;6349;50.904;6.136;2022-07-06T08:54:53;17.50;99.90
12568;DHT22;6349;50.904;6.136;2022-07-06T08:57:15;17.40;99.90
12568;DHT22;6349;50.904;6.136;2022-07-06T08:59:37;17.40;99.90
12568;DHT22;6349;50.904;6.136;2022-07-06T09:02:00;17.50;99.90
12568;DHT22;6349;50.904;6.136;2022-07-06T09:04:22;17.50;99.90
12568;DHT22;6349;50.904;6.136;2022-07-06T09:06:46;17.60;99.90
12568;DHT22;6349;50.904;6.136;2022-07-06T09:09:07;17.70;99.90
12568;DHT22;6349;50.904;6.136;2022-07-06T09:11:28;17.80;99.90
12568;DHT22;6349;50.904;6.136;2022-07-06T09:13:50;18.00;99.90
12568;DHT22;6349;50.904;6.136;2022-07-06T09:16:13;18.10;99.90
12568;DHT22;6349;50.904;6.136;2022-07-06T09:18:37;18.20;99.90
12568;DHT22;6349;50.904;6.136;2022-07-06T09:20:58;18.20;99.90
12568;DHT22;6349;50.904;6.136;2022-07-06T09:23:19;18.20;99.90
12568;DHT22;6349;50.904;6.136;2022-07-06T09:25:48;18.30;99.90
12568;DHT22;6349;50.904;6.136;2022-07-06T09:28:12;18.30;99.90
12568;DHT22;6349;50.904;6.136;2022-07-06T09:30:33;18.20;99.90
12568;DHT22;6349;50.904;6.136;2022-07-06T09:32:56;18.20;99.90
12568;DHT22;6349;50.904;6.136;2022-07-06T09:37:48;18.00;99.90
12568;DHT22;6349;50.904;6.136;2022-07-06T09:40:19;18.00;99.90
12568;DHT22;6349;50.904;6.136;2022-07-06T09:42:40;17.90;99.90
12568;DHT22;6349;50.904;6.136;2022-07-06T09:45:03;18.00;99.90
12568;DHT22;6349;50.904;6.136;2022-07-06T09:47:26;18.00;99.90
12568;DHT22;6349;50.904;6.136;2022-07-06T09:49:47;18.20;99.90
12568;DHT22;6349;50.904;6.136;2022-07-06T09:52:10;18.40;99.90
12568;DHT22;6349;50.904;6.136;2022-07-06T09:54:33;18.60;99.90
12568;DHT22;6349;50.904;6.136;2022-07-06T09:56:57;18.60;99.90
12568;DHT22;6349;50.904;6.136;2022-07-06T09:59:24;18.60;99.90
12568;DHT22;6349;50.904;6.136;2022-07-06T10:01:45;18.60;99.90
12568;DHT22;6349;50.904;6.136;2022-07-06T10:04:08;18.60;99.90
12568;DHT22;6349;50.904;6.136;2022-07-06T10:06:29;18.70;99.90
12568;DHT22;6349;50.904;6.136;2022-07-06T10:08:50;18.70;99.90
12568;DHT22;6349;50.904;6.136;2022-07-06T10:11:12;18.80;99.90
12568;DHT22;6349;50.904;6.136;2022-07-06T10:13:36;18.80;99.90
12568;DHT22;6349;50.904;6.136;2022-07-06T10:15:57;18.90;99.90
12568;DHT22;6349;50.904;6.136;2022-07-06T10:18:19;18.90;99.90
12568;DHT22;6349;50.904;6.136;2022-07-06T10:20:40;19.10;99.90
12568;DHT22;6349;50.904;6.136;2022-07-06T10:23:03;19.20;99.90
12568;DHT22;6349;50.904;6.136;2022-07-06T10:25:25;19.20;99.90
12568;DHT22;6349;50.904;6.136;2022-07-06T10:27:47;19.10;99.90
12568;DHT22;6349;50.904;6.136;2022-07-06T10:30:09;19.10;99.90
12568;DHT22;6349;50.904;6.136;2022-07-06T10:32:31;19.10;99.90
12568;DHT22;6349;50.904;6.136;2022-07-06T10:34:52;19.00;99.90
12568;DHT22;6349;50.904;6.136;2022-07-06T10:37:24;18.90;99.90
12568;DHT22;6349;50.904;6.136;2022-07-06T10:39:48;19.00;99.90
12568;DHT22;6349;50.904;6.136;2022-07-06T10:43:08;19.30;99.90
12568;DHT22;6349;50.904;6.136;2022-07-06T10:50:35;19.40;99.90
12568;DHT22;6349;50.904;6.136;2022-07-06T10:52:59;19.50;99.90
12568;DHT22;6349;50.904;6.136;2022-07-06T10:55:31;19.60;99.90
12568;DHT22;6349;50.904;6.136;2022-07-06T10:57:52;19.80;99.90
12568;DHT22;6349;50.904;6.136;2022-07-06T11:00:14;19.90;99.90
12568;DHT22;6349;50.904;6.136;2022-07-06T11:02:38;20.00;99.90
12568;DHT22;6349;50.904;6.136;2022-07-06T11:04:59;20.00;99.90
12568;DHT22;6349;50.904;6.136;2022-07-06T11:07:21;20.00;99.90
12568;DHT22;6349;50.904;6.136;2022-07-06T11:10:02;20.00;99.90
12568;DHT22;6349;50.904;6.136;2022-07-06T11:12:24;19.90;99.90
12568;DHT22;6349;50.904;6.136;2022-07-06T11:14:46;19.90;99.90
12568;DHT22;6349;50.904;6.136;2022-07-06T11:17:11;20.00;99.90
12568;DHT22;6349;50.904;6.136;2022-07-06T11:19:32;19.90;99.90
12568;DHT22;6349;50.904;6.136;2022-07-06T11:21:58;20.00;99.90
12568;DHT22;6349;50.904;6.136;2022-07-06T11:24:27;20.00;99.90
12568;DHT22;6349;50.904;6.136;2022-07-06T11:26:50;20.10;99.90
12568;DHT22;6349;50.904;6.136;2022-07-06T11:29:12;20.20;99.90
12568;DHT22;6349;50.904;6.136;2022-07-06T11:31:38;20.40;99.90
12568;DHT22;6349;50.904;6.136;2022-07-06T11:33:59;20.40;99.90
12568;DHT22;6349;50.904;6.136;2022-07-06T11:36:21;20.50;99.90
12568;DHT22;6349;50.904;6.136;2022-07-06T11:38:43;20.60;99.90
12568;DHT22;6349;50.904;6.136;2022-07-06T11:41:04;20.60;99.90
12568;DHT22;6349;50.904;6.136;2022-07-06T11:43:25;20.60;99.90
12568;DHT22;6349;50.904;6.136;2022-07-06T11:45:46;20.60;99.90
12568;DHT22;6349;50.904;6.136;2022-07-06T11:48:11;20.50;99.90
12568;DHT22;6349;50.904;6.136;2022-07-06T11:50:32;20.60;99.90
12568;DHT22;6349;50.904;6.136;2022-07-06T11:52:53;20.60;99.90
12568;DHT22;6349;50.904;6.136;2022-07-06T11:55:15;20.70;99.90
12568;DHT22;6349;50.904;6.136;2022-07-06T11:57:36;20.70;99.90
12568;DHT22;6349;50.904;6.136;2022-07-06T11:59:58;20.60;99.90
12568;DHT22;6349;50.904;6.136;2022-07-06T12:02:19;20.70;99.90
12568;DHT22;6349;50.904;6.136;2022-07-06T12:04:42;20.70;99.90
12568;DHT22;6349;50.904;6.136;2022-07-06T12:07:08;20.80;99.90
12568;DHT22;6349;50.904;6.136;2022-07-06T12:09:33;20.90;99.90
12568;DHT22;6349;50.904;6.136;2022-07-06T12:11:54;20.90;99.90
12568;DHT22;6349;50.904;6.136;2022-07-06T12:14:20;20.90;99.90
12568;DHT22;6349;50.904;6.136;2022-07-06T12:16:42;20.90;99.90
12568;DHT22;6349;50.904;6.136;2022-07-06T12:19:04;20.80;99.90
12568;DHT22;6349;50.904;6.136;2022-07-06T12:21:25;20.90;99.90
12568;DHT22;6349;50.904;6.136;2022-07-06T12:23:48;21.10;99.90
12568;DHT22;6349;50.904;6.136;2022-07-06T12:26:10;21.20;99.90
12568;DHT22;6349;50.904;6.136;2022-07-06T12:28:31;21.30;99.90
12568;DHT22;6349;50.904;6.136;2022-07-06T12:30:52;21.40;99.90
12568;DHT22;6349;50.904;6.136;2022-07-06T12:33:14;21.30;99.90
12568;DHT22;6349;50.904;6.136;2022-07-06T12:35:39;21.20;99.90
12568;DHT22;6349;50.904;6.136;2022-07-06T12:38:00;21.30;99.90
12568;DHT22;6349;50.904;6.136;2022-07-06T12:40:26;21.20;99.90
12568;DHT22;6349;50.904;6.136;2022-07-06T12:42:50;21.20;99.90
12568;DHT22;6349;50.904;6.136;2022-07-06T12:45:11;21.20;99.90
12568;DHT22;6349;50.904;6.136;2022-07-06T12:47:32;21.20;99.90
12568;DHT22;6349;50.904;6.136;2022-07-06T12:50:08;21.20;99.90
12568;DHT22;6349;50.904;6.136;2022-07-06T12:52:29;21.00;99.90
12568;DHT22;6349;50.904;6.136;2022-07-06T12:54:51;21.10;99.90
12568;DHT22;6349;50.904;6.136;2022-07-06T12:57:23;21.10;99.90
12568;DHT22;6349;50.904;6.136;2022-07-06T12:59:47;21.20;99.90
12568;DHT22;6349;50.904;6.136;2022-07-06T13:02:32;21.30;99.90
12568;DHT22;6349;50.904;6.136;2022-07-06T13:05:06;21.40;99.90
12568;DHT22;6349;50.904;6.136;2022-07-06T13:07:28;21.60;99.90
12568;DHT22;6349;50.904;6.136;2022-07-06T13:09:49;21.80;99.90
12568;DHT22;6349;50.904;6.136;2022-07-06T13:12:10;21.70;99.90
12568;DHT22;6349;50.904;6.136;2022-07-06T13:14:31;21.80;99.90
12568;DHT22;6349;50.904;6.136;2022-07-06T13:16:52;21.80;99.90
12568;DHT22;6349;50.904;6.136;2022-07-06T13:19:15;21.70;99.90
12568;DHT22;6349;50.904;6.136;2022-07-06T13:21:36;21.70;99.90
12568;DHT22;6349;50.904;6.136;2022-07-06T13:23:57;21.70;99.90
12568;DHT22;6349;50.904;6.136;2022-07-06T13:26:18;21.90;99.90
12568;DHT22;6349;50.904;6.136;2022-07-06T13:28:39;22.00;99.90
12568;DHT22;6349;50.904;6.136;2022-07-06T13:31:00;22.10;99.90
12568;DHT22;6349;50.904;6.136;2022-07-06T13:33:21;22.10;99.90
12568;DHT22;6349;50.904;6.136;2022-07-06T13:35:42;22.20;99.90
12568;DHT22;6349;50.904;6.136;2022-07-06T13:38:03;22.50;99.90
12568;DHT22;6349;50.904;6.136;2022-07-06T13:40:24;22.50;99.90
12568;DHT22;6349;50.904;6.136;2022-07-06T13:42:45;22.50;99.90
12568;DHT22;6349;50.904;6.136;2022-07-06T13:45:06;22.50;99.90
12568;DHT22;6349;50.904;6.136;2022-07-06T13:47:27;22.60;99.90
12568;DHT22;6349;50.904;6.136;2022-07-06T13:49:48;22.60;99.90
12568;DHT22;6349;50.904;6.136;2022-07-06T13:52:10;22.70;99.90
12568;DHT22;6349;50.904;6.136;2022-07-06T13:54:32;22.80;99.90
12568;DHT22;6349;50.904;6.136;2022-07-06T13:56:53;22.60;99.90
12568;DHT22;6349;50.904;6.136;2022-07-06T13:59:14;22.50;99.90
12568;DHT22;6349;50.904;6.136;2022-07-06T14:01:35;22.40;99.90
12568;DHT22;6349;50.904;6.136;2022-07-06T14:03:56;22.50;99.90
12568;DHT22;6349;50.904;6.136;2022-07-06T14:06:17;22.60;99.90
12568;DHT22;6349;50.904;6.136;2022-07-06T14:08:39;22.60;99.90
12568;DHT22;6349;50.904;6.136;2022-07-06T14:11:00;22.70;99.90
12568;DHT22;6349;50.904;6.136;2022-07-06T14:13:22;22.80;99.90
12568;DHT22;6349;50.904;6.136;2022-07-06T14:15:43;23.00;99.90
12568;DHT22;6349;50.904;6.136;2022-07-06T14:18:04;23.10;99.90
12568;DHT22;6349;50.904;6.136;2022-07-06T14:20:25;23.10;99.90
12568;DHT22;6349;50.904;6.136;2022-07-06T14:22:46;23.10;99.90
12568;DHT22;6349;50.904;6.136;2022-07-06T14:25:08;23.00;99.90
12568;DHT22;6349;50.904;6.136;2022-07-06T14:27:29;22.90;99.90
12568;DHT22;6349;50.904;6.136;2022-07-06T14:29:50;22.90;99.90
12568;DHT22;6349;50.904;6.136;2022-07-06T14:32:11;23.00;99.90
12568;DHT22;6349;50.904;6.136;2022-07-06T14:34:32;23.00;99.90
12568;DHT22;6349;50.904;6.136;2022-07-06T14:36:54;23.00;99.90
12568;DHT22;6349;50.904;6.136;2022-07-06T14:39:15;23.20;99.90
12568;DHT22;6349;50.904;6.136;2022-07-06T14:41:38;23.30;99.90
12568;DHT22;6349;50.904;6.136;2022-07-06T14:43:59;23.20;99.90
12568;DHT22;6349;50.904;6.136;2022-07-06T14:46:20;23.30;99.90
12568;DHT22;6349;50.904;6.136;2022-07-06T14:48:41;23.60;99.90
12568;DHT22;6349;50.904;6.136;2022-07-06T14:51:02;23.80;99.90
12568;DHT22;6349;50.904;6.136;2022-07-06T14:53:23;24.00;99.90
12568;DHT22;6349;50.904;6.136;2022-07-06T14:55:46;24.30;99.90
12568;DHT22;6349;50.904;6.136;2022-07-06T14:58:07;24.60;99.90
12568;DHT22;6349;50.904;6.136;2022-07-06T15:00:28;24.50;99.90
12568;DHT22;6349;50.904;6.136;2022-07-06T15:02:49;24.60;99.90
12568;DHT22;6349;50.904;6.136;2022-07-06T15:05:11;24.50;99.90
12568;DHT22;6349;50.904;6.136;2022-07-06T15:07:32;24.20;99.90
12568;DHT22;6349;50.904;6.136;2022-07-06T15:09:53;24.00;99.90
12568;DHT22;6349;50.904;6.136;2022-07-06T15:12:14;24.10;99.90
12568;DHT22;6349;50.904;6.136;2022-07-06T15:14:35;24.20;99.90
12568;DHT22;6349;50.904;6.136;2022-07-06T15:16:56;24.20;99.90